• Join FlightAware (Why Join?)
  • Login
  • US Flag 
06:19PM EDT


 

Airport Tracker/Info


-or-


 

Live Flight TrackerFlight Track Log ✈ VH-LBY ✈ 05-Sep-2013 ✈ YDBY / DRB - YBRM / BME

Flight Track Log - Related Links

Times and Time Zones

All times are in EDT time to prevent confusion due to time zone crossing. See the VH-LBY flight status page for this flight to view local times or setup timezone preferences in your user account.

Time Position Orientation Groundspeed Altitude Reporting Facility
EDT Latitude Longitude Course Direction KTS MPH feet Rate Location/Type
04:01AM -17.4064 123.5718 247° West 300  Level Aus ATC (Calculated)
04:02AM -17.4431 123.4820 67° East 100 -900 Descending Aus ATC (Calculated)
04:03AM -17.4290 123.5166 247° West  Level FlightAware Approximate
04:04AM -17.4821 123.3864 247° West  Level FlightAware Approximate
04:04AM -17.5151 123.3052 67° East 300  Level Aus ATC (Calculated)
04:05AM -17.5035 123.3337 247° West  Level FlightAware Approximate
04:06AM -17.5376 123.2498 247° West  Level FlightAware Approximate
04:07AM -17.5590 123.1971 247° West  Level FlightAware Approximate
04:08AM -17.5804 123.1444 247° West  Level FlightAware Approximate
04:09AM -17.6018 123.0917 247° West  Level FlightAware Approximate
04:09AM -17.6611 122.9453 67° East 100  Level Aus ATC (Calculated)
04:10AM -17.6231 123.0390 247° West  Level FlightAware Approximate
04:11AM -17.6849 122.8864 247° West  Level FlightAware Approximate
04:12AM -17.7062 122.8336 247° West  Level FlightAware Approximate
04:13AM -17.7275 122.7808 247° West  Level FlightAware Approximate
04:14AM -17.7488 122.7280 247° West  Level FlightAware Approximate
04:14AM -17.7700 122.6766 268° West 100  Level Aus ATC (Calculated)
04:15AM -17.7701 122.6752 247° West  Level FlightAware Approximate
04:16AM -17.8022 122.5965 247° West  Level FlightAware Approximate
04:16AM -17.8032 122.5925 247° West 300  Level Aus ATC (Calculated)
04:17AM -17.8233 122.5436 247° West  Level FlightAware Approximate
04:18AM -17.8411 122.4982 247° West  Level FlightAware Approximate
04:19AM -17.8623 122.4453 247° West  Level FlightAware Approximate
04:19AM -17.9106 122.3247 67° East 300  Level Aus ATC (Calculated)
04:20AM -17.8835 122.3924 247° West  Level FlightAware Approximate
04:20AM -17.9106 122.3247 247° West 300  Level Aus ATC (Calculated)
04:21AM -17.9360 122.2611 247° West  Level FlightAware Approximate
04:22AM -17.9494 122.2276 247° West  Level FlightAware Approximate
04:23AM -17.9447 122.2317 67° East  Level Estimated
04:24AM -17.9447 122.2317 115° Southeast  Level Estimated
04:25AM -17.9447 122.2317 115° Southeast  Level Estimated
04:26AM -17.9463 122.2353 247° West  Level FlightAware Approximate
04:27AM -17.9447 122.2317 247° West  Level Estimated
04:28AM -17.9463 122.2353 247° West  Level FlightAware Approximate
04:29AM -17.9447 122.2317 247° West  Level Estimated
04:30AM -17.9463 122.2353 247° West  Level FlightAware Approximate
04:31AM -17.9447 122.2317 247° West  Level Estimated
04:32AM -17.9463 122.2353 247° West  Level FlightAware Approximate
04:33AM -17.9447 122.2317 247° West  Level Estimated
04:34AM -17.9463 122.2353 247° West  Level FlightAware Approximate
04:35AM -17.9447 122.2317 247° West  Level Estimated
04:36AM -17.9463 122.2353 247° West  Level FlightAware Approximate
04:37AM -17.9447 122.2317 247° West  Level Estimated
04:38AM -17.9463 122.2353 247° West  Level FlightAware Approximate
04:39AM -17.9447 122.2317 247° West  Level Estimated
04:40AM -17.9463 122.2353 247° West  Level FlightAware Approximate